Time;durP1;ratioP1;P1;durP2;ratioP2;P2;SDS_P1;SDS_P2;PMS_P1;PMS_P2;Temp;Humidity;BMP_temperature;BMP_pressure;BME280_temperature;BME280_humidity;BME280_pressure;Samples;Min_cycle;Max_cycle;Signal;HPM_P1;HPM_P2
2021/12/31 00:01:35;;;;;;;1.17;1.17;;;;;;;13.00;90.06;97410.91;5114572;28;20380;-64
2021/12/31 00:04:01;;;;;;;1.00;1.00;;;;;;;12.88;89.93;97414.31;5114404;28;20435;-64
2021/12/31 00:06:26;;;;;;;1.57;1.20;;;;;;;12.90;90.04;97414.09;5114473;28;20385;-64
2021/12/31 00:08:51;;;;;;;1.17;1.10;;;;;;;13.08;89.02;97423.75;5114965;28;20826;-64
2021/12/31 00:11:17;;;;;;;1.97;1.30;;;;;;;13.02;88.69;97417.53;5114758;28;20388;-64
2021/12/31 00:13:42;;;;;;;1.10;1.10;;;;;;;12.83;89.95;97414.19;5114210;28;20411;-64
2021/12/31 00:16:08;;;;;;;1.20;1.20;;;;;;;12.93;89.55;97411.00;5115133;28;20886;-65
2021/12/31 00:18:33;;;;;;;2.40;1.10;;;;;;;12.99;89.84;97411.91;5114331;28;20391;-65
2021/12/31 00:20:58;;;;;;;1.50;1.40;;;;;;;12.88;90.06;97406.41;5114562;28;20388;-65
2021/12/31 00:23:25;;;;;;;1.30;1.20;;;;;;;13.03;89.08;97416.53;5113869;28;20385;-65
2021/12/31 00:25:51;;;;;;;2.38;1.40;;;;;;;12.99;89.12;97422.44;5114536;28;20424;-65
2021/12/31 00:28:16;;;;;;;1.17;1.08;;;;;;;12.96;89.79;97430.81;5114628;28;20392;-65
2021/12/31 00:30:42;;;;;;;1.17;1.17;;;;;;;12.82;90.16;97420.47;5114289;28;20786;-65
2021/12/31 00:33:08;;;;;;;1.40;1.30;;;;;;;12.69;90.95;97407.53;5113966;28;20430;-65
2021/12/31 00:35:35;;;;;;;1.35;1.25;;;;;;;12.81;90.90;97405.72;5113666;28;20896;-65
2021/12/31 00:38:01;;;;;;;1.75;1.50;;;;;;;12.89;90.25;97409.84;5113631;28;20436;-65
2021/12/31 00:40:27;;;;;;;1.40;1.30;;;;;;;12.68;91.11;97403.28;5114013;28;20423;-65
2021/12/31 00:42:53;;;;;;;1.67;1.57;;;;;;;12.82;90.54;97417.03;5114243;28;20876;-65
2021/12/31 00:45:21;;;;;;;1.48;1.30;;;;;;;12.75;91.49;97416.34;5113235;28;20393;-65
2021/12/31 00:47:47;;;;;;;1.50;1.40;;;;;;;12.58;92.86;97418.00;5114149;28;20395;-65
2021/12/31 00:50:14;;;;;;;1.63;1.48;;;;;;;12.64;92.60;97417.09;5113902;28;20760;-65
2021/12/31 00:52:40;;;;;;;1.60;1.43;;;;;;;12.70;91.82;97411.75;5113761;28;20439;-65
2021/12/31 00:55:06;;;;;;;1.50;1.40;;;;;;;12.64;92.18;97417.09;5113751;28;20428;-65
2021/12/31 00:57:32;;;;;;;1.50;1.40;;;;;;;12.52;93.27;97417.06;5113879;28;20408;-65
2021/12/31 00:59:58;;;;;;;1.50;1.40;;;;;;;12.46;93.98;97420.56;5113645;28;20388;-65
2021/12/31 01:02:27;;;;;;;1.20;1.20;;;;;;;12.47;93.42;97417.72;5113187;28;20535;-65
2021/12/31 01:04:53;;;;;;;1.90;1.33;;;;;;;12.81;91.77;97418.88;5095257;28;20396;-64
2021/12/31 01:07:18;;;;;;;1.50;1.40;;;;;;;12.57;92.41;97427.72;5113363;28;20400;-66
2021/12/31 01:09:44;;;;;;;1.55;1.45;;;;;;;12.64;92.66;97427.63;5113504;28;20395;-65
2021/12/31 01:12:11;;;;;;;1.75;1.45;;;;;;;12.61;92.26;97434.13;5113419;28;20442;-65
2021/12/31 01:14:41;;;;;;;1.40;1.30;;;;;;;12.34;93.94;97431.03;5094741;28;20388;-65
2021/12/31 01:17:15;;;;;;;1.60;1.50;;;;;;;12.29;94.41;97430.09;5114095;28;20388;-65
2021/12/31 01:19:46;;;;;;;1.40;1.30;;;;;;;12.46;92.86;97434.53;5113000;28;20399;-65
2021/12/31 01:22:27;;;;;;;1.60;1.50;;;;;;;12.27;93.60;97435.56;5113231;28;20477;-65
2021/12/31 01:24:52;;;;;;;1.50;1.40;;;;;;;12.41;92.91;97433.59;5113248;28;20404;-65
2021/12/31 01:27:18;;;;;;;2.78;1.42;;;;;;;12.34;92.83;97435.50;5113467;28;20585;-65
2021/12/31 01:29:43;;;;;;;1.40;1.30;;;;;;;12.16;93.62;97446.00;5112742;28;20386;-64
2021/12/31 01:32:09;;;;;;;2.10;1.50;;;;;;;12.19;93.29;97433.25;5113029;28;20420;-64
2021/12/31 01:34:35;;;;;;;1.30;1.20;;;;;;;12.30;93.02;97436.97;5112566;28;20397;-65
2021/12/31 01:37:01;;;;;;;1.40;1.30;;;;;;;12.04;93.79;97433.63;5113293;28;20396;-67
2021/12/31 01:39:28;;;;;;;1.50;1.40;;;;;;;12.04;93.66;97436.25;5072927;28;20419;-65
2021/12/31 01:41:57;;;;;;;2.00;1.50;;;;;;;12.01;94.09;97430.63;5072024;28;21104;-65
2021/12/31 01:44:23;;;;;;;1.58;1.48;;;;;;;11.66;95.81;97438.22;5071978;28;20396;-65
2021/12/31 01:46:54;;;;;;;1.98;1.50;;;;;;;11.60;96.52;97433.84;5072353;28;20399;-65
2021/12/31 01:49:21;;;;;;;1.60;1.50;;;;;;;11.81;94.54;97427.44;5072260;28;20725;-65
2021/12/31 01:51:46;;;;;;;2.08;1.98;;;;;;;11.69;95.03;97432.56;5071379;28;20391;-65
2021/12/31 01:54:12;;;;;;;1.87;1.50;;;;;;;11.42;96.61;97420.72;5072073;28;20407;-67
2021/12/31 01:56:37;;;;;;;1.98;1.52;;;;;;;11.46;96.51;97438.44;5072079;28;20782;-65
2021/12/31 01:59:05;;;;;;;1.60;1.50;;;;;;;11.57;96.31;97439.53;5071972;28;20823;-65
2021/12/31 02:01:30;;;;;;;1.58;1.48;;;;;;;11.47;95.67;97431.38;5071941;28;20471;-65
2021/12/31 02:03:56;;;;;;;1.70;1.60;;;;;;;11.59;95.30;97437.50;5071606;28;20475;-64
2021/12/31 02:06:21;;;;;;;1.77;1.67;;;;;;;11.46;95.46;97427.94;5071747;28;20447;-65
2021/12/31 02:08:47;;;;;;;1.67;1.57;;;;;;;11.60;94.58;97420.72;5071821;28;20403;-65
2021/12/31 02:11:16;;;;;;;1.93;1.70;;;;;;;11.60;94.25;97421.53;5071280;28;20756;-65
2021/12/31 02:13:42;;;;;;;1.60;1.50;;;;;;;11.37;95.45;97417.94;5071862;28;20819;-66
2021/12/31 02:16:08;;;;;;;1.60;1.50;;;;;;;11.27;96.18;97424.44;5070494;28;20388;-65
2021/12/31 02:18:35;;;;;;;2.38;1.60;;;;;;;11.23;96.35;97425.91;5070138;28;20917;-64
2021/12/31 02:21:02;;;;;;;1.50;1.50;;;;;;;11.06;97.58;97418.78;5071359;28;20394;-65
2021/12/31 02:23:37;;;;;;;2.07;1.87;;;;;;;11.08;97.45;97414.94;5071623;28;20433;-65
2021/12/31 02:26:03;;;;;;;2.10;1.73;;;;;;;11.20;96.92;97415.81;5071799;28;20436;-64
2021/12/31 02:28:28;;;;;;;1.83;1.73;;;;;;;11.19;96.54;97409.00;5071334;28;20834;-65
2021/12/31 02:31:00;;;;;;;1.90;1.80;;;;;;;11.04;97.02;97411.13;5070249;28;20384;-64
2021/12/31 02:33:25;;;;;;;1.80;1.70;;;;;;;11.07;96.91;97420.38;5070073;28;20407;-65
2021/12/31 02:35:51;;;;;;;1.80;1.70;;;;;;;10.94;97.66;97416.03;5071404;28;20900;-65
2021/12/31 02:38:16;;;;;;;2.25;1.80;;;;;;;11.03;97.28;97417.41;5087641;28;20420;-64
2021/12/31 02:40:41;;;;;;;2.50;1.80;;;;;;;10.91;97.77;97415.66;5111757;28;20473;-64
2021/12/31 02:43:07;;;;;;;1.93;1.83;;;;;;;10.84;98.18;97410.47;5111804;28;20499;-64
2021/12/31 02:45:36;;;;;;;2.23;1.87;;;;;;;10.77;98.01;97420.19;5112117;28;20399;-64
2021/12/31 02:48:03;;;;;;;1.83;1.73;;;;;;;10.60;99.31;97416.47;5115714;28;20395;-64
2021/12/31 02:50:38;;;;;;;2.13;1.93;;;;;;;10.74;98.60;97410.13;5115420;28;20400;-66
2021/12/31 02:53:13;;;;;;;1.80;1.70;;;;;;;10.76;98.01;97398.41;5116165;28;20406;-64
2021/12/31 02:55:40;;;;;;;2.05;1.95;;;;;;;10.74;97.78;97397.03;5115815;28;20445;-64
2021/12/31 02:58:06;;;;;;;2.00;1.80;;;;;;;10.71;98.73;97400.06;5102872;28;20384;-64
2021/12/31 03:00:34;;;;;;;1.92;1.83;;;;;;;10.52;99.64;97388.69;5115543;28;20894;-65
2021/12/31 03:03:00;;;;;;;3.00;1.75;;;;;;;10.62;99.52;97390.84;5115384;28;20399;-65
2021/12/31 03:05:28;;;;;;;2.08;1.88;;;;;;;10.51;99.76;97381.84;5115907;28;20466;-65
2021/12/31 03:07:56;;;;;;;1.90;1.80;;;;;;;10.49;100.00;97388.31;5115727;28;20513;-65
2021/12/31 03:10:26;;;;;;;2.23;2.03;;;;;;;10.36;100.00;97383.97;5097296;28;20899;-64
2021/12/31 03:12:51;;;;;;;2.03;1.92;;;;;;;10.29;100.00;97383.19;5116030;28;20436;-64
2021/12/31 03:15:17;;;;;;;2.70;2.50;;;;;;;10.57;99.12;97378.38;5115738;28;20495;-65
2021/12/31 03:17:44;;;;;;;2.00;1.80;;;;;;;10.64;98.45;97380.97;5115377;28;20423;-65
2021/12/31 03:20:15;;;;;;;2.00;1.90;;;;;;;10.54;98.93;97385.84;5115597;28;20546;-64
2021/12/31 03:22:42;;;;;;;1.88;1.77;;;;;;;10.46;99.91;97376.44;5115705;28;20464;-65
2021/12/31 03:25:09;;;;;;;2.08;1.90;;;;;;;10.59;98.64;97373.72;5115872;28;20396;-64
2021/12/31 03:27:35;;;;;;;2.35;1.98;;;;;;;10.35;99.83;97374.50;5115163;28;20448;-65
2021/12/31 03:30:01;;;;;;;1.95;1.85;;;;;;;10.50;99.34;97379.44;5114747;28;20872;-65
2021/12/31 03:32:26;;;;;;;2.10;2.00;;;;;;;10.50;98.99;97380.25;5103843;28;20419;-64
2021/12/31 03:34:52;;;;;;;2.80;2.00;;;;;;;10.54;99.32;97378.78;5115702;28;20416;-64
2021/12/31 03:37:17;;;;;;;2.10;2.00;;;;;;;10.60;98.31;97377.94;5115435;28;20503;-65
2021/12/31 03:39:42;;;;;;;2.22;2.05;;;;;;;10.46;99.30;97386.91;5097125;28;20498;-64
2021/12/31 03:42:08;;;;;;;2.10;2.00;;;;;;;10.52;99.33;97385.28;5115193;28;20392;-64
2021/12/31 03:44:33;;;;;;;1.90;1.80;;;;;;;10.52;98.99;97385.28;5115295;28;20386;-67
2021/12/31 03:46:59;;;;;;;2.37;2.20;;;;;;;10.43;99.40;97388.13;5097386;28;20479;-64
2021/12/31 03:49:26;;;;;;;2.50;2.10;;;;;;;10.21;100.00;97383.41;5115230;28;20428;-64
2021/12/31 03:51:52;;;;;;;2.40;2.20;;;;;;;10.14;100.00;97388.66;5114579;28;20385;-65
2021/12/31 03:54:17;;;;;;;2.13;2.03;;;;;;;10.19;100.00;97390.69;5096650;28;20911;-65
2021/12/31 03:56:43;;;;;;;2.33;2.22;;;;;;;10.25;100.00;97384.63;5114547;28;20388;-65
2021/12/31 03:59:08;;;;;;;2.28;2.10;;;;;;;10.34;100.00;97383.34;5113635;28;20447;-64
2021/12/31 04:01:34;;;;;;;2.43;2.07;;;;;;;10.46;99.06;97386.91;5115207;28;20435;-64
2021/12/31 04:03:59;;;;;;;2.10;2.00;;;;;;;10.50;98.78;97380.25;5114490;28;20380;-65
2021/12/31 04:06:24;;;;;;;3.63;2.10;;;;;;;10.50;98.85;97379.44;5114645;28;20488;-66
2021/12/31 04:08:50;;;;;;;2.93;2.00;;;;;;;10.36;100.00;97381.34;5114774;28;20403;-64
2021/12/31 04:11:16;;;;;;;2.03;1.93;;;;;;;10.51;98.73;97383.66;5114514;28;20395;-64
2021/12/31 04:13:41;;;;;;;2.10;2.00;;;;;;;10.34;99.56;97380.75;5114611;28;20408;-64
2021/12/31 04:16:07;;;;;;;1.97;1.87;;;;;;;10.31;100.00;97383.75;5114714;28;20389;-65
2021/12/31 04:18:32;;;;;;;2.40;2.20;;;;;;;10.38;98.80;97384.53;5114092;28;20400;-65
2021/12/31 04:20:58;;;;;;;2.10;2.00;;;;;;;10.32;99.70;97380.94;5114201;28;20380;-65
2021/12/31 04:23:33;;;;;;;2.00;1.90;;;;;;;10.25;100.00;97382.00;5114821;28;20868;-65
2021/12/31 04:25:59;;;;;;;2.30;2.10;;;;;;;10.11;100.00;97375.97;5096299;28;20434;-64
2021/12/31 04:28:28;;;;;;;2.08;1.88;;;;;;;10.26;100.00;97384.41;5113992;28;20380;-64
2021/12/31 04:30:54;;;;;;;2.30;2.00;;;;;;;10.37;99.78;97380.31;5114438;28;20418;-65
2021/12/31 04:33:19;;;;;;;1.95;1.85;;;;;;;10.21;100.00;97378.19;5113428;28;20423;-65
2021/12/31 04:35:45;;;;;;;2.58;2.40;;;;;;;10.13;100.00;97371.34;5114464;28;20418;-64
2021/12/31 04:38:10;;;;;;;2.20;2.10;;;;;;;10.23;100.00;97374.34;5114204;28;20454;-64
2021/12/31 04:40:36;;;;;;;2.30;2.10;;;;;;;10.17;100.00;97375.19;5113597;28;20745;-64
2021/12/31 04:43:02;;;;;;;2.10;2.00;;;;;;;10.06;100.00;97367.94;5114141;28;20479;-66
2021/12/31 04:45:27;;;;;;;2.53;2.33;;;;;;;10.12;100.00;97366.31;5102523;28;20388;-64
2021/12/31 04:47:53;;;;;;;2.10;2.00;;;;;;;10.13;100.00;97371.34;5113333;28;20449;-64
2021/12/31 04:50:19;;;;;;;2.67;2.47;;;;;;;10.13;100.00;97363.50;5113728;28;20416;-65
2021/12/31 04:52:45;;;;;;;2.10;2.00;;;;;;;9.82;100.00;97366.84;5113413;28;20444;-64
2021/12/31 04:55:11;;;;;;;2.30;2.20;;;;;;;9.91;100.00;97364.81;5113797;28;20403;-64
2021/12/31 04:57:37;;;;;;;2.63;2.25;;;;;;;9.89;100.00;97367.63;5113408;28;20857;-65
2021/12/31 05:00:07;;;;;;;3.03;2.10;;;;;;;9.85;100.00;97363.81;5113267;28;20423;-65
2021/12/31 05:02:32;;;;;;;2.40;2.28;;;;;;;9.95;100.00;97363.38;5113275;28;20392;-64
2021/12/31 05:04:58;;;;;;;2.50;2.28;;;;;;;9.96;100.00;97362.34;5113607;28;20404;-64
2021/12/31 05:07:23;;;;;;;2.20;2.07;;;;;;;9.86;100.00;97362.78;5113741;28;20488;-65
2021/12/31 05:09:48;;;;;;;2.17;2.07;;;;;;;9.72;100.00;97357.81;5095004;28;20390;-67
2021/12/31 05:12:20;;;;;;;2.83;2.30;;;;;;;9.98;100.00;97355.88;5113210;28;20433;-65
2021/12/31 05:14:45;;;;;;;2.22;2.10;;;;;;;9.89;100.00;97357.16;5095278;28;20396;-65
2021/12/31 05:17:11;;;;;;;2.23;2.10;;;;;;;9.72;100.00;97356.00;5113257;28;20403;-65
2021/12/31 05:19:36;;;;;;;1.92;1.80;;;;;;;9.87;100.00;97355.72;5113213;28;20484;-64
2021/12/31 05:22:02;;;;;;;2.27;2.17;;;;;;;9.97;100.00;97356.91;5113462;28;20399;-65
2021/12/31 05:24:27;;;;;;;2.80;2.00;;;;;;;9.96;100.00;97355.31;5113393;28;20391;-64
2021/12/31 05:26:53;;;;;;;2.43;2.20;;;;;;;9.97;100.00;97354.28;5113161;28;20392;-64
2021/12/31 05:29:18;;;;;;;2.00;1.90;;;;;;;9.88;100.00;97358.16;5112199;28;20394;-65
2021/12/31 05:31:43;;;;;;;2.10;2.00;;;;;;;10.03;100.00;97363.91;5112777;28;21089;-64
2021/12/31 05:34:09;;;;;;;2.40;2.20;;;;;;;10.09;100.00;97361.47;5112878;28;20384;-64
2021/12/31 05:36:34;;;;;;;2.30;2.10;;;;;;;10.15;100.00;97360.66;5113081;28;20411;-64
2021/12/31 05:39:00;;;;;;;2.30;2.17;;;;;;;9.99;100.00;97357.50;5112649;28;20480;-64
2021/12/31 05:41:25;;;;;;;2.00;1.90;;;;;;;9.85;100.00;97366.44;5112833;28;20384;-64
2021/12/31 05:43:50;;;;;;;2.30;2.20;;;;;;;9.64;100.00;97363.28;5113112;28;20924;-65
2021/12/31 05:46:16;;;;;;;2.20;2.10;;;;;;;9.65;100.00;97365.69;5113067;28;20873;-65
2021/12/31 05:48:42;;;;;;;2.40;2.20;;;;;;;9.75;100.00;97371.28;5112976;28;20841;-64
2021/12/31 05:51:07;;;;;;;2.20;2.00;;;;;;;9.82;100.00;97371.25;5112274;28;20384;-64
2021/12/31 05:53:33;;;;;;;2.10;2.00;;;;;;;9.60;100.00;97357.66;5112219;28;20403;-65
2021/12/31 05:55:58;;;;;;;3.77;2.20;;;;;;;9.53;100.00;97355.03;5112425;28;20392;-64
2021/12/31 05:58:23;;;;;;;2.30;2.00;;;;;;;9.52;100.00;97350.03;5112052;28;20850;-65
2021/12/31 06:00:49;;;;;;;2.80;2.40;;;;;;;9.58;100.00;97342.13;5111989;28;20384;-65
2021/12/31 06:03:14;;;;;;;2.13;1.92;;;;;;;9.54;100.00;97342.75;5112098;28;20766;-65
2021/12/31 06:05:40;;;;;;;2.47;2.20;;;;;;;9.66;100.00;97338.50;5112787;28;20396;-64
2021/12/31 06:08:05;;;;;;;2.25;2.15;;;;;;;9.57;100.00;97348.41;5111764;28;20411;-64
2021/12/31 06:10:31;;;;;;;2.07;1.97;;;;;;;9.50;100.00;97341.56;5112443;28;20391;-64
2021/12/31 06:12:59;;;;;;;2.40;1.93;;;;;;;9.57;100.00;97348.41;5094138;28;20408;-64
2021/12/31 06:15:27;;;;;;;3.30;2.20;;;;;;;9.50;100.00;97345.00;5111961;28;20388;-66
2021/12/31 06:17:52;;;;;;;2.83;2.25;;;;;;;9.57;100.00;97347.59;5094106;28;20430;-66
2021/12/31 06:20:18;;;;;;;2.57;2.37;;;;;;;9.50;100.00;97347.63;5112143;28;20388;-64
2021/12/31 06:22:43;;;;;;;2.43;2.23;;;;;;;9.64;100.00;97356.22;5111920;28;20392;-65
2021/12/31 06:25:09;;;;;;;2.60;2.40;;;;;;;9.52;100.00;97356.06;5112453;28;20384;-65
2021/12/31 06:27:35;;;;;;;2.53;2.10;;;;;;;9.65;100.00;97351.78;5111944;28;20948;-67
2021/12/31 06:30:01;;;;;;;2.60;2.40;;;;;;;9.41;100.00;97361.13;5112099;28;20753;-66
2021/12/31 06:32:26;;;;;;;4.03;2.43;;;;;;;9.60;100.00;97362.88;5093857;28;20412;-65
2021/12/31 06:34:52;;;;;;;2.70;2.17;;;;;;;9.64;100.00;97365.91;5111838;28;20949;-65
2021/12/31 06:37:17;;;;;;;2.53;2.40;;;;;;;9.46;100.00;97367.34;5111898;28;20597;-66
2021/12/31 06:39:45;;;;;;;2.40;2.30;;;;;;;9.36;100.00;97372.19;5111423;28;20413;-64
2021/12/31 06:42:10;;;;;;;2.20;2.10;;;;;;;9.46;100.00;97371.78;5093949;28;20424;-64
2021/12/31 06:44:37;;;;;;;2.30;2.20;;;;;;;9.23;100.00;97366.19;5111536;28;20511;-65
2021/12/31 06:47:03;;;;;;;2.45;2.25;;;;;;;9.06;100.00;97363.19;5111693;28;20800;-64
2021/12/31 06:49:29;;;;;;;3.30;2.33;;;;;;;9.15;100.00;97356.72;5111331;28;20479;-65
2021/12/31 06:51:55;;;;;;;2.10;2.00;;;;;;;9.25;100.00;97353.72;5111563;28;20502;-64
2021/12/31 06:54:20;;;;;;;2.57;2.40;;;;;;;9.34;100.00;97358.53;5111911;28;20479;-64
2021/12/31 06:56:45;;;;;;;2.50;2.30;;;;;;;9.27;100.00;97349.88;5093742;28;20807;-65
2021/12/31 06:59:11;;;;;;;2.10;2.00;;;;;;;9.40;100.00;97356.91;5111402;28;20381;-65
2021/12/31 07:01:36;;;;;;;2.10;2.00;;;;;;;9.35;100.00;97365.38;5111582;28;20476;-64
2021/12/31 07:04:02;;;;;;;2.20;2.00;;;;;;;9.31;100.00;97358.09;5111091;28;20906;-65
2021/12/31 07:06:27;;;;;;;2.97;2.22;;;;;;;9.37;100.00;97365.94;5112018;28;20395;-64
2021/12/31 07:08:52;;;;;;;2.20;2.10;;;;;;;9.14;100.00;97366.38;5111399;28;20449;-64
2021/12/31 07:11:21;;;;;;;2.25;2.15;;;;;;;9.16;100.00;97377.47;5111671;28;20388;-64
2021/12/31 07:13:47;;;;;;;2.63;2.30;;;;;;;9.11;100.00;97382.50;5111679;28;20884;-63
2021/12/31 07:16:12;;;;;;;2.60;2.40;;;;;;;9.03;100.00;97377.47;5111926;28;20392;-64
2021/12/31 07:18:38;;;;;;;2.63;2.42;;;;;;;9.09;100.00;97381.88;5111250;28;20388;-67
2021/12/31 07:21:03;;;;;;;2.40;2.30;;;;;;;9.00;100.00;97377.88;5097776;28;20391;-64
2021/12/31 07:23:28;;;;;;;2.90;2.70;;;;;;;9.19;100.00;97384.88;5111504;28;20389;-64
2021/12/31 07:25:54;;;;;;;2.40;2.30;;;;;;;9.20;100.00;97375.22;5111816;28;20471;-63
2021/12/31 07:28:19;;;;;;;2.70;2.50;;;;;;;9.05;100.00;97375.47;5111257;28;20396;-64
2021/12/31 07:30:46;;;;;;;2.70;2.50;;;;;;;9.17;100.00;97383.50;5111273;28;20403;-64
2021/12/31 07:33:16;;;;;;;3.10;2.83;;;;;;;9.33;100.00;97372.59;5111839;28;20411;-65
2021/12/31 07:35:42;;;;;;;2.78;2.58;;;;;;;9.49;100.00;97373.97;5115031;28;20421;-64
2021/12/31 07:38:10;;;;;;;3.07;2.87;;;;;;;9.51;100.00;97370.16;5115066;28;20858;-64
2021/12/31 07:40:41;;;;;;;3.10;2.90;;;;;;;9.55;100.00;97367.94;5115359;28;20408;-64
2021/12/31 07:43:08;;;;;;;3.33;2.80;;;;;;;9.71;100.00;97370.09;5114959;28;20396;-63
2021/12/31 07:45:34;;;;;;;2.97;2.78;;;;;;;9.83;100.00;97370.25;5115656;28;20984;-64
2021/12/31 07:48:00;;;;;;;3.50;3.20;;;;;;;9.81;100.00;97367.84;5115165;28;20404;-64
2021/12/31 07:50:26;;;;;;;3.17;2.97;;;;;;;9.95;100.00;97361.56;5114958;28;20385;-64
2021/12/31 07:52:51;;;;;;;3.10;2.90;;;;;;;9.74;100.00;97363.66;5114674;28;20445;-64
2021/12/31 07:55:17;;;;;;;3.20;2.90;;;;;;;9.94;100.00;97375.66;5115170;28;20462;-66
2021/12/31 07:57:42;;;;;;;3.30;3.00;;;;;;;9.82;100.00;97373.88;5114417;28;20769;-65
2021/12/31 08:00:08;;;;;;;3.30;3.00;;;;;;;9.80;100.00;97373.31;5114658;28;20384;-65
2021/12/31 08:02:33;;;;;;;3.10;2.90;;;;;;;9.86;100.00;97382.94;5114166;28;20468;-65
2021/12/31 08:04:59;;;;;;;3.50;2.80;;;;;;;10.26;100.00;97389.63;5114860;28;20751;-66
2021/12/31 08:07:24;;;;;;;3.27;3.07;;;;;;;10.83;100.00;97387.88;5114838;28;20396;-64
2021/12/31 08:09:49;;;;;;;2.80;2.60;;;;;;;11.41;100.00;97395.47;5114756;28;20384;-66
2021/12/31 08:12:15;;;;;;;2.57;2.37;;;;;;;11.29;96.22;97391.94;5114855;28;20884;-65
2021/12/31 08:14:40;;;;;;;3.00;2.47;;;;;;;10.98;96.87;97388.34;5114564;28;20396;-65
2021/12/31 08:17:05;;;;;;;2.50;2.30;;;;;;;10.85;96.70;97401.59;5114837;28;20399;-68
2021/12/31 08:19:31;;;;;;;2.73;2.53;;;;;;;10.85;96.54;97391.09;5113893;28;20714;-67
2021/12/31 08:21:56;;;;;;;2.70;2.50;;;;;;;10.77;96.19;97392.16;5113922;28;20439;-66
2021/12/31 08:24:21;;;;;;;2.80;2.60;;;;;;;10.70;96.23;97395.84;5114681;28;20392;-66
2021/12/31 08:26:48;;;;;;;3.10;2.80;;;;;;;10.76;96.22;97398.41;5113870;28;20472;-66
2021/12/31 08:29:15;;;;;;;3.20;2.90;;;;;;;10.60;96.61;97393.69;5114264;28;20393;-66
2021/12/31 08:31:41;;;;;;;3.58;3.28;;;;;;;10.49;97.59;97398.78;5114046;28;20392;-68
2021/12/31 08:34:11;;;;;;;3.10;2.80;;;;;;;10.41;98.50;97397.22;5114410;28;20396;-66
2021/12/31 08:36:37;;;;;;;2.80;2.60;;;;;;;10.38;98.36;97393.19;5114340;28;20392;-66
2021/12/31 08:39:05;;;;;;;2.83;2.63;;;;;;;10.53;97.61;97394.75;5111671;28;20491;-65
2021/12/31 08:41:31;;;;;;;2.80;2.60;;;;;;;10.68;95.92;97390.00;5113501;28;20499;-65
2021/12/31 08:43:56;;;;;;;2.95;2.75;;;;;;;10.75;95.08;97382.91;5113214;28;20402;-65
2021/12/31 08:46:22;;;;;;;3.80;2.65;;;;;;;10.56;96.18;97381.22;5113625;28;20415;-65
2021/12/31 08:48:48;;;;;;;2.80;2.60;;;;;;;10.51;96.74;97381.84;5113792;28;20385;-65
2021/12/31 08:51:13;;;;;;;3.03;2.70;;;;;;;10.62;95.43;97383.00;5113435;28;20381;-65
2021/12/31 08:53:38;;;;;;;2.70;2.50;;;;;;;10.55;95.78;97383.03;5113449;28;20404;-65
2021/12/31 08:56:04;;;;;;;3.00;2.80;;;;;;;10.57;96.01;97369.72;5113706;28;20380;-65
2021/12/31 08:58:29;;;;;;;2.93;2.73;;;;;;;10.75;95.96;97367.19;5113931;28;20381;-64
2021/12/31 09:00:55;;;;;;;2.67;2.47;;;;;;;10.72;96.24;97368.38;5113038;28;20445;-65
2021/12/31 09:03:20;;;;;;;3.03;2.50;;;;;;;10.76;96.33;97368.75;5112583;28;20400;-65
2021/12/31 09:05:45;;;;;;;2.77;2.57;;;;;;;10.78;95.88;97367.53;5095270;28;20415;-64
2021/12/31 09:08:11;;;;;;;2.93;2.73;;;;;;;10.73;95.99;97369.19;5113670;28;20861;-64
2021/12/31 09:10:36;;;;;;;3.40;3.10;;;;;;;10.84;95.98;97376.38;5113496;28;20372;-64
2021/12/31 09:13:02;;;;;;;3.00;2.70;;;;;;;10.91;96.24;97379.75;5113281;28;20461;-66
2021/12/31 09:15:27;;;;;;;3.13;2.80;;;;;;;10.89;96.25;97371.28;5113051;28;20830;-66
2021/12/31 09:17:55;;;;;;;2.73;2.53;;;;;;;10.79;96.73;97369.16;5094726;28;20483;-65
2021/12/31 09:20:20;;;;;;;2.50;2.30;;;;;;;10.93;95.61;97371.66;5112924;28;20876;-65
2021/12/31 09:22:45;;;;;;;2.43;2.33;;;;;;;10.93;95.75;97377.72;5113268;28;20473;-64
2021/12/31 09:25:11;;;;;;;2.07;1.97;;;;;;;10.95;95.48;97374.88;5112917;28;20456;-65
2021/12/31 09:27:36;;;;;;;1.95;1.80;;;;;;;11.08;94.78;97370.34;5112661;28;20412;-71
2021/12/31 09:30:02;;;;;;;2.10;1.90;;;;;;;11.25;94.01;97373.22;5113037;28;20384;-67
2021/12/31 09:32:28;;;;;;;2.00;1.90;;;;;;;11.11;94.56;97376.97;5113460;28;20428;-64
2021/12/31 09:34:53;;;;;;;1.87;1.77;;;;;;;11.08;95.32;97380.03;5112498;28;20395;-65
2021/12/31 09:37:19;;;;;;;2.20;2.00;;;;;;;11.19;93.66;97368.84;5113496;28;20396;-65
2021/12/31 09:39:44;;;;;;;2.33;2.23;;;;;;;11.35;93.38;97364.84;5113059;28;20430;-65
2021/12/31 09:42:10;;;;;;;2.50;2.30;;;;;;;11.14;93.67;97373.94;5113077;28;20516;-65
2021/12/31 09:44:36;;;;;;;3.67;2.80;;;;;;;11.15;98.81;97376.31;5112367;28;20530;-68
2021/12/31 09:47:07;;;;;;;3.20;2.90;;;;;;;11.29;99.10;97370.97;5095274;28;20172;-66
2021/12/31 09:49:38;;;;;;;2.70;2.50;;;;;;;11.25;94.48;97367.97;5112820;28;20400;-65
2021/12/31 09:52:04;;;;;;;3.25;2.70;;;;;;;11.06;95.06;97368.94;5112775;28;20861;-65
2021/12/31 09:54:30;;;;;;;2.50;2.30;;;;;;;11.22;94.16;97371.81;5119666;27;20397;-66
2021/12/31 09:56:56;;;;;;;3.10;2.90;;;;;;;10.99;96.27;97371.59;5113254;27;20860;-66
2021/12/31 09:59:23;;;;;;;3.05;2.80;;;;;;;10.92;96.58;97370.06;5112463;28;20454;-65
2021/12/31 10:01:52;;;;;;;2.90;2.70;;;;;;;11.07;97.33;97365.31;5094787;28;20400;-66
2021/12/31 10:04:17;;;;;;;2.70;2.50;;;;;;;11.12;96.99;97366.25;5105886;28;20385;-64
2021/12/31 10:07:05;;;;;;;2.30;2.20;;;;;;;11.30;96.00;97373.38;5111476;28;20435;-64
2021/12/31 10:09:31;;;;;;;2.00;1.90;;;;;;;11.65;94.06;97366.53;5099102;28;20714;-63
2021/12/31 10:11:57;;;;;;;2.60;2.25;;;;;;;11.69;94.17;97364.28;5092948;28;20768;-65
2021/12/31 10:14:37;;;;;;;4.20;3.80;;;;;;;11.77;94.07;97365.84;5107324;27;20400;-67
2021/12/31 10:17:05;;;;;;;2.67;2.47;;;;;;;11.73;93.94;97359.38;5108850;27;20416;-65
2021/12/31 10:19:31;;;;;;;2.87;2.67;;;;;;;11.97;92.71;97355.91;5111461;28;20196;-65
2021/12/31 10:21:56;;;;;;;5.45;4.95;;;;;;;12.27;92.13;97358.53;5112274;28;20172;-66
2021/12/31 10:24:32;;;;;;;328.60;295.53;;;;;;;12.49;90.67;97346.50;5112416;28;20267;-66
2021/12/31 10:27:19;;;;;;;20.03;17.47;;;;;;;12.54;90.84;97338.72;5112263;28;20695;-69
2021/12/31 10:30:04;;;;;;;71.13;62.73;;;;;;;12.57;89.59;97342.75;5113581;28;20172;-65
2021/12/31 10:32:31;;;;;;;11.17;10.20;;;;;;;12.61;90.10;97333.38;5114041;28;20196;-65
2021/12/31 10:35:07;;;;;;;3.83;3.53;;;;;;;12.75;91.45;97326.91;5112799;28;20649;-67
2021/12/31 10:37:41;;;;;;;4.23;2.73;;;;;;;12.84;87.53;97322.91;5113101;28;20655;-69
2021/12/31 10:40:07;;;;;;;3.83;2.97;;;;;;;12.51;89.24;97323.41;5112850;28;20167;-66
2021/12/31 10:42:34;;;;;;;4.63;3.60;;;;;;;12.47;89.54;97322.28;5113570;28;20215;-65
2021/12/31 10:45:02;;;;;;;5.30;4.10;;;;;;;12.33;90.23;97319.03;5112743;28;20250;-66
2021/12/31 10:47:38;;;;;;;5.80;5.03;;;;;;;12.96;97.52;97318.47;5113124;28;20198;-67
2021/12/31 10:50:04;;;;;;;4.70;4.20;;;;;;;12.89;91.54;97321.19;5113061;28;20175;-64
2021/12/31 10:52:42;;;;;;;3.37;3.07;;;;;;;12.98;88.37;97315.59;5112390;28;20203;-65
2021/12/31 10:55:20;;;;;;;4.10;3.57;;;;;;;12.64;89.31;97319.78;5112874;28;20247;-66
2021/12/31 10:57:47;;;;;;;3.47;3.00;;;;;;;12.49;89.95;97320.22;5107588;28;20217;-66
2021/12/31 11:00:14;;;;;;;3.50;3.20;;;;;;;12.44;89.80;97325.34;5109713;28;20626;-72
2021/12/31 11:02:40;;;;;;;3.73;3.43;;;;;;;12.34;90.56;97315.38;5111392;28;20187;-65
2021/12/31 11:05:07;;;;;;;3.20;3.00;;;;;;;12.46;90.38;97307.53;5113032;28;20204;-65
2021/12/31 11:07:34;;;;;;;3.57;3.27;;;;;;;12.30;91.58;97308.16;5113552;28;20279;-65
2021/12/31 11:10:04;;;;;;;3.50;3.20;;;;;;;12.34;91.66;97301.44;5116106;28;20180;-66
2021/12/31 11:12:30;;;;;;;3.40;3.10;;;;;;;12.19;92.36;97301.84;5116093;28;20663;-66
2021/12/31 11:14:56;;;;;;;3.20;2.90;;;;;;;12.25;92.03;97308.03;5116456;28;20187;-66
2021/12/31 11:17:23;;;;;;;3.00;2.80;;;;;;;12.32;91.81;97314.78;5098250;28;20187;-65
2021/12/31 11:19:49;;;;;;;3.50;3.20;;;;;;;12.32;91.00;97309.53;5116317;28;20192;-67
2021/12/31 11:22:26;;;;;;;3.33;3.03;;;;;;;12.31;91.71;97301.91;5090387;28;20180;-66
2021/12/31 11:24:52;;;;;;;3.27;2.97;;;;;;;12.53;91.05;97302.16;5116478;28;20168;-65
2021/12/31 11:27:34;;;;;;;3.53;3.23;;;;;;;12.50;91.30;97293.69;5115708;27;20578;-71
2021/12/31 11:30:00;;;;;;;3.87;3.47;;;;;;;12.69;89.86;97294.41;5114615;28;20186;-66